sensor_id;sensor_type;location;lat;lon;timestamp;pressure;altitude;pressure_sealevel;temperature
70533;BMP180;58088;51.186;17.130;2023-07-16T00:00:53;99778.80;;;25.50
70533;BMP180;58088;51.186;17.130;2023-07-16T00:03:19;99770.40;;;25.50
70533;BMP180;58088;51.186;17.130;2023-07-16T00:05:45;99773.20;;;25.50
70533;BMP180;58088;51.186;17.130;2023-07-16T00:08:11;99775.00;;;25.40
70533;BMP180;58088;51.186;17.130;2023-07-16T00:10:37;99769.00;;;25.40
70533;BMP180;58088;51.186;17.130;2023-07-16T00:13:04;99771.60;;;25.40
70533;BMP180;58088;51.186;17.130;2023-07-16T00:15:30;99769.60;;;25.40
70533;BMP180;58088;51.186;17.130;2023-07-16T00:17:56;99772.00;;;25.40
70533;BMP180;58088;51.186;17.130;2023-07-16T00:20:23;99769.60;;;25.30
70533;BMP180;58088;51.186;17.130;2023-07-16T00:22:52;99767.60;;;25.30
70533;BMP180;58088;51.186;17.130;2023-07-16T00:25:18;99768.60;;;25.30
70533;BMP180;58088;51.186;17.130;2023-07-16T00:27:44;99762.60;;;25.20
70533;BMP180;58088;51.186;17.130;2023-07-16T00:30:10;99763.40;;;25.20
70533;BMP180;58088;51.186;17.130;2023-07-16T00:32:38;99759.80;;;25.14
70533;BMP180;58088;51.186;17.130;2023-07-16T00:35:05;99758.20;;;25.10
70533;BMP180;58088;51.186;17.130;2023-07-16T00:37:34;99758.80;;;25.00
70533;BMP180;58088;51.186;17.130;2023-07-16T00:40:01;99752.40;;;25.00
70533;BMP180;58088;51.186;17.130;2023-07-16T00:42:27;99753.20;;;25.00
70533;BMP180;58088;51.186;17.130;2023-07-16T00:44:53;99756.00;;;24.90
70533;BMP180;58088;51.186;17.130;2023-07-16T00:47:19;99759.80;;;24.90
70533;BMP180;58088;51.186;17.130;2023-07-16T00:49:48;99761.60;;;24.90
70533;BMP180;58088;51.186;17.130;2023-07-16T00:52:19;99760.20;;;24.80
70533;BMP180;58088;51.186;17.130;2023-07-16T00:54:46;99759.60;;;24.80
70533;BMP180;58088;51.186;17.130;2023-07-16T00:57:13;99753.60;;;24.80
70533;BMP180;58088;51.186;17.130;2023-07-16T00:59:39;99753.80;;;24.80
70533;BMP180;58088;51.186;17.130;2023-07-16T01:02:05;99750.00;;;24.72
70533;BMP180;58088;51.186;17.130;2023-07-16T01:04:31;99750.20;;;24.70
70533;BMP180;58088;51.186;17.130;2023-07-16T01:07:04;99747.80;;;24.70
70533;BMP180;58088;51.186;17.130;2023-07-16T01:09:33;99746.40;;;24.70
70533;BMP180;58088;51.186;17.130;2023-07-16T01:12:03;99749.20;;;24.70
70533;BMP180;58088;51.186;17.130;2023-07-16T01:14:31;99745.00;;;24.70
70533;BMP180;58088;51.186;17.130;2023-07-16T01:16:58;99745.20;;;24.70
70533;BMP180;58088;51.186;17.130;2023-07-16T01:19:25;99743.80;;;24.70
70533;BMP180;58088;51.186;17.130;2023-07-16T01:28:21;99733.00;;;24.60
70533;BMP180;58088;51.186;17.130;2023-07-16T01:30:28;99727.40;;;24.60
70533;BMP180;58088;51.186;17.130;2023-07-16T01:32:56;99729.80;;;24.60
70533;BMP180;58088;51.186;17.130;2023-07-16T01:35:23;99740.40;;;24.60
70533;BMP180;58088;51.186;17.130;2023-07-16T01:37:50;99737.40;;;24.60
70533;BMP180;58088;51.186;17.130;2023-07-16T01:40:16;99732.80;;;24.60
70533;BMP180;58088;51.186;17.130;2023-07-16T01:42:42;99727.80;;;24.60
70533;BMP180;58088;51.186;17.130;2023-07-16T01:45:09;99727.80;;;24.50
70533;BMP180;58088;51.186;17.130;2023-07-16T01:50:13;99726.00;;;24.40
70533;BMP180;58088;51.186;17.130;2023-07-16T01:52:40;99728.20;;;24.30
70533;BMP180;58088;51.186;17.130;2023-07-16T01:55:06;99724.20;;;24.30
70533;BMP180;58088;51.186;17.130;2023-07-16T01:57:33;99720.60;;;24.20
70533;BMP180;58088;51.186;17.130;2023-07-16T01:59:59;99721.20;;;24.20
70533;BMP180;58088;51.186;17.130;2023-07-16T02:02:26;99719.80;;;24.20
70533;BMP180;58088;51.186;17.130;2023-07-16T02:05:11;99715.40;;;24.10
70533;BMP180;58088;51.186;17.130;2023-07-16T02:07:37;99715.20;;;24.10
70533;BMP180;58088;51.186;17.130;2023-07-16T02:10:04;99716.00;;;24.10
70533;BMP180;58088;51.186;17.130;2023-07-16T02:12:31;99718.80;;;24.10
70533;BMP180;58088;51.186;17.130;2023-07-16T02:14:59;99716.60;;;24.10
70533;BMP180;58088;51.186;17.130;2023-07-16T02:17:25;99718.60;;;24.00
70533;BMP180;58088;51.186;17.130;2023-07-16T02:19:51;99716.80;;;24.00
70533;BMP180;58088;51.186;17.130;2023-07-16T02:22:17;99715.80;;;24.00
70533;BMP180;58088;51.186;17.130;2023-07-16T02:24:43;99719.60;;;24.00
70533;BMP180;58088;51.186;17.130;2023-07-16T02:27:09;99728.00;;;24.00
70533;BMP180;58088;51.186;17.130;2023-07-16T02:29:35;99731.40;;;24.00
70533;BMP180;58088;51.186;17.130;2023-07-16T02:32:01;99735.20;;;24.00
70533;BMP180;58088;51.186;17.130;2023-07-16T02:34:28;99752.80;;;24.00
70533;BMP180;58088;51.186;17.130;2023-07-16T02:36:54;99755.00;;;24.00
70533;BMP180;58088;51.186;17.130;2023-07-16T02:39:20;99768.40;;;24.00
70533;BMP180;58088;51.186;17.130;2023-07-16T02:41:46;99773.00;;;23.90
70533;BMP180;58088;51.186;17.130;2023-07-16T02:44:12;99779.00;;;23.82
70533;BMP180;58088;51.186;17.130;2023-07-16T02:46:41;99766.00;;;23.80
70533;BMP180;58088;51.186;17.130;2023-07-16T02:49:07;99761.60;;;23.70
70533;BMP180;58088;51.186;17.130;2023-07-16T02:51:33;99753.60;;;23.58
70533;BMP180;58088;51.186;17.130;2023-07-16T02:53:59;99749.00;;;23.50
70533;BMP180;58088;51.186;17.130;2023-07-16T02:56:25;99752.20;;;23.50
70533;BMP180;58088;51.186;17.130;2023-07-16T02:58:52;99768.40;;;23.50
70533;BMP180;58088;51.186;17.130;2023-07-16T03:01:18;99769.00;;;23.60
70533;BMP180;58088;51.186;17.130;2023-07-16T03:03:44;99766.20;;;23.60
70533;BMP180;58088;51.186;17.130;2023-07-16T03:06:11;99764.20;;;23.60
70533;BMP180;58088;51.186;17.130;2023-07-16T03:08:37;99758.80;;;23.70
70533;BMP180;58088;51.186;17.130;2023-07-16T03:11:03;99764.60;;;23.70
70533;BMP180;58088;51.186;17.130;2023-07-16T03:13:29;99771.20;;;23.80
70533;BMP180;58088;51.186;17.130;2023-07-16T03:15:56;99775.80;;;23.90
70533;BMP180;58088;51.186;17.130;2023-07-16T03:18:22;99778.20;;;24.00
70533;BMP180;58088;51.186;17.130;2023-07-16T03:20:48;99781.80;;;24.16
70533;BMP180;58088;51.186;17.130;2023-07-16T03:23:15;99783.20;;;24.40
70533;BMP180;58088;51.186;17.130;2023-07-16T03:25:42;99781.60;;;24.70
70533;BMP180;58088;51.186;17.130;2023-07-16T03:28:09;99773.60;;;24.90
70533;BMP180;58088;51.186;17.130;2023-07-16T03:30:36;99777.00;;;25.12
70533;BMP180;58088;51.186;17.130;2023-07-16T03:33:04;99789.60;;;25.40
70533;BMP180;58088;51.186;17.130;2023-07-16T03:35:31;99805.00;;;25.74
70533;BMP180;58088;51.186;17.130;2023-07-16T03:37:57;99829.40;;;26.10
70533;BMP180;58088;51.186;17.130;2023-07-16T03:40:26;99863.60;;;26.50
70533;BMP180;58088;51.186;17.130;2023-07-16T03:42:53;99915.80;;;26.80
70533;BMP180;58088;51.186;17.130;2023-07-16T03:45:20;99938.80;;;27.00
70533;BMP180;58088;51.186;17.130;2023-07-16T03:47:46;99962.60;;;27.20
70533;BMP180;58088;51.186;17.130;2023-07-16T03:50:13;99947.60;;;27.30
70533;BMP180;58088;51.186;17.130;2023-07-16T03:52:39;99917.20;;;27.44
70533;BMP180;58088;51.186;17.130;2023-07-16T03:55:06;99925.00;;;27.58
70533;BMP180;58088;51.186;17.130;2023-07-16T03:57:33;99938.00;;;27.92
70533;BMP180;58088;51.186;17.130;2023-07-16T04:00:00;99922.20;;;28.30
70533;BMP180;58088;51.186;17.130;2023-07-16T04:02:27;99942.80;;;28.64
70533;BMP180;58088;51.186;17.130;2023-07-16T04:04:53;99948.20;;;28.96
70533;BMP180;58088;51.186;17.130;2023-07-16T04:07:19;99957.00;;;29.22
70533;BMP180;58088;51.186;17.130;2023-07-16T04:09:46;99963.20;;;29.60
70533;BMP180;58088;51.186;17.130;2023-07-16T04:12:12;99973.80;;;29.76
70533;BMP180;58088;51.186;17.130;2023-07-16T04:14:38;99985.00;;;30.00
70533;BMP180;58088;51.186;17.130;2023-07-16T04:17:05;99986.80;;;30.20
70533;BMP180;58088;51.186;17.130;2023-07-16T04:19:31;99984.00;;;30.40
70533;BMP180;58088;51.186;17.130;2023-07-16T04:21:58;99979.40;;;30.74
70533;BMP180;58088;51.186;17.130;2023-07-16T04:24:24;99985.80;;;31.08
70533;BMP180;58088;51.186;17.130;2023-07-16T04:26:54;99989.20;;;31.38
70533;BMP180;58088;51.186;17.130;2023-07-16T04:29:20;100003.00;;;31.70
70533;BMP180;58088;51.186;17.130;2023-07-16T04:31:47;100005.80;;;31.90
70533;BMP180;58088;51.186;17.130;2023-07-16T04:34:13;100013.40;;;31.90
70533;BMP180;58088;51.186;17.130;2023-07-16T04:36:39;100027.20;;;32.00
70533;BMP180;58088;51.186;17.130;2023-07-16T04:39:06;100030.60;;;32.10
70533;BMP180;58088;51.186;17.130;2023-07-16T04:41:32;100036.00;;;32.10
70533;BMP180;58088;51.186;17.130;2023-07-16T04:43:58;100034.40;;;32.20
70533;BMP180;58088;51.186;17.130;2023-07-16T04:46:25;100039.60;;;32.44
70533;BMP180;58088;51.186;17.130;2023-07-16T04:48:51;100049.80;;;32.50
70533;BMP180;58088;51.186;17.130;2023-07-16T04:51:17;100044.20;;;32.50
70533;BMP180;58088;51.186;17.130;2023-07-16T04:53:43;100039.40;;;32.40
70533;BMP180;58088;51.186;17.130;2023-07-16T04:56:13;100053.40;;;32.70
70533;BMP180;58088;51.186;17.130;2023-07-16T04:58:40;100050.20;;;33.00
70533;BMP180;58088;51.186;17.130;2023-07-16T05:01:09;100055.00;;;33.24
70533;BMP180;58088;51.186;17.130;2023-07-16T05:03:36;100060.60;;;33.56
70533;BMP180;58088;51.186;17.130;2023-07-16T05:06:03;100074.60;;;33.80
70533;BMP180;58088;51.186;17.130;2023-07-16T05:08:30;100078.60;;;33.90
70533;BMP180;58088;51.186;17.130;2023-07-16T05:10:56;100093.00;;;34.10
70533;BMP180;58088;51.186;17.130;2023-07-16T05:13:22;100093.20;;;34.20
70533;BMP180;58088;51.186;17.130;2023-07-16T05:15:49;100097.40;;;34.60
70533;BMP180;58088;51.186;17.130;2023-07-16T05:18:16;100093.00;;;34.86
70533;BMP180;58088;51.186;17.130;2023-07-16T05:20:42;100096.40;;;35.10
70533;BMP180;58088;51.186;17.130;2023-07-16T05:23:10;100101.20;;;35.40
70533;BMP180;58088;51.186;17.130;2023-07-16T05:25:36;100105.20;;;35.74
70533;BMP180;58088;51.186;17.130;2023-07-16T05:28:03;100107.80;;;35.90
70533;BMP180;58088;51.186;17.130;2023-07-16T05:30:30;100108.40;;;35.90
70533;BMP180;58088;51.186;17.130;2023-07-16T05:32:56;100107.60;;;36.10
70533;BMP180;58088;51.186;17.130;2023-07-16T05:35:22;100116.80;;;36.20
70533;BMP180;58088;51.186;17.130;2023-07-16T05:37:49;100123.40;;;36.20
70533;BMP180;58088;51.186;17.130;2023-07-16T05:40:15;100116.00;;;36.30
70533;BMP180;58088;51.186;17.130;2023-07-16T05:42:41;100117.00;;;36.42
70533;BMP180;58088;51.186;17.130;2023-07-16T05:45:08;100118.00;;;36.50
70533;BMP180;58088;51.186;17.130;2023-07-16T05:47:34;100118.80;;;36.56
70533;BMP180;58088;51.186;17.130;2023-07-16T05:50:00;100125.40;;;36.86
70533;BMP180;58088;51.186;17.130;2023-07-16T05:52:27;100135.40;;;36.98
70533;BMP180;58088;51.186;17.130;2023-07-16T05:54:53;100130.20;;;36.78
70533;BMP180;58088;51.186;17.130;2023-07-16T05:57:19;100134.40;;;36.30
70533;BMP180;58088;51.186;17.130;2023-07-16T05:59:46;100137.60;;;35.78
70533;BMP180;58088;51.186;17.130;2023-07-16T06:02:12;100132.60;;;35.30
70533;BMP180;58088;51.186;17.130;2023-07-16T06:04:38;100135.20;;;35.00
70533;BMP180;58088;51.186;17.130;2023-07-16T06:07:05;100138.80;;;34.64
70533;BMP180;58088;51.186;17.130;2023-07-16T06:09:33;100137.00;;;34.24
70533;BMP180;58088;51.186;17.130;2023-07-16T06:12:00;100145.80;;;33.80
70533;BMP180;58088;51.186;17.130;2023-07-16T06:14:26;100149.40;;;33.40
70533;BMP180;58088;51.186;17.130;2023-07-16T06:16:52;100149.60;;;33.10
70533;BMP180;58088;51.186;17.130;2023-07-16T06:19:19;100155.00;;;32.94
70533;BMP180;58088;51.186;17.130;2023-07-16T06:21:45;100158.80;;;32.80
70533;BMP180;58088;51.186;17.130;2023-07-16T06:24:11;100168.80;;;32.60
70533;BMP180;58088;51.186;17.130;2023-07-16T06:26:38;100172.60;;;33.06
70533;BMP180;58088;51.186;17.130;2023-07-16T06:29:04;100177.00;;;33.34
70533;BMP180;58088;51.186;17.130;2023-07-16T06:31:30;100180.00;;;33.58
70533;BMP180;58088;51.186;17.130;2023-07-16T06:33:57;100189.20;;;34.00
70533;BMP180;58088;51.186;17.130;2023-07-16T06:36:23;100184.00;;;33.90
70533;BMP180;58088;51.186;17.130;2023-07-16T06:38:49;100191.20;;;33.56
70533;BMP180;58088;51.186;17.130;2023-07-16T06:41:16;100191.00;;;33.18
70533;BMP180;58088;51.186;17.130;2023-07-16T06:43:42;100197.00;;;32.92
70533;BMP180;58088;51.186;17.130;2023-07-16T06:46:08;100205.00;;;32.70
70533;BMP180;58088;51.186;17.130;2023-07-16T06:48:34;100197.80;;;32.64
70533;BMP180;58088;51.186;17.130;2023-07-16T06:51:01;100210.40;;;32.78
70533;BMP180;58088;51.186;17.130;2023-07-16T06:53:27;100219.00;;;32.60
70533;BMP180;58088;51.186;17.130;2023-07-16T06:55:53;100216.60;;;32.60
70533;BMP180;58088;51.186;17.130;2023-07-16T06:58:30;100224.40;;;32.58
70533;BMP180;58088;51.186;17.130;2023-07-16T07:00:56;100218.60;;;32.50
70533;BMP180;58088;51.186;17.130;2023-07-16T07:03:23;100225.00;;;32.20
70533;BMP180;58088;51.186;17.130;2023-07-16T07:05:49;100216.00;;;32.06
70533;BMP180;58088;51.186;17.130;2023-07-16T07:08:15;100217.20;;;31.90
70533;BMP180;58088;51.186;17.130;2023-07-16T07:10:41;100228.20;;;31.72
70533;BMP180;58088;51.186;17.130;2023-07-16T07:13:07;100228.00;;;31.60
70533;BMP180;58088;51.186;17.130;2023-07-16T07:15:33;100229.00;;;31.50
70533;BMP180;58088;51.186;17.130;2023-07-16T07:18:00;100232.80;;;31.50
70533;BMP180;58088;51.186;17.130;2023-07-16T07:20:26;100232.80;;;31.50
70533;BMP180;58088;51.186;17.130;2023-07-16T07:22:52;100234.60;;;31.32
70533;BMP180;58088;51.186;17.130;2023-07-16T07:25:18;100236.60;;;31.10
70533;BMP180;58088;51.186;17.130;2023-07-16T07:27:44;100232.80;;;31.00
70533;BMP180;58088;51.186;17.130;2023-07-16T07:30:11;100228.20;;;30.90
70533;BMP180;58088;51.186;17.130;2023-07-16T07:32:38;100228.60;;;30.74
70533;BMP180;58088;51.186;17.130;2023-07-16T07:35:08;100224.20;;;30.76
70533;BMP180;58088;51.186;17.130;2023-07-16T07:37:34;100220.20;;;30.90
70533;BMP180;58088;51.186;17.130;2023-07-16T07:40:00;100221.80;;;31.10
70533;BMP180;58088;51.186;17.130;2023-07-16T07:42:26;100216.40;;;31.28
70533;BMP180;58088;51.186;17.130;2023-07-16T07:44:53;100215.00;;;31.40
70533;BMP180;58088;51.186;17.130;2023-07-16T07:47:20;100210.60;;;31.40
70533;BMP180;58088;51.186;17.130;2023-07-16T07:49:46;100209.60;;;31.30
70533;BMP180;58088;51.186;17.130;2023-07-16T07:52:12;100212.00;;;31.42
70533;BMP180;58088;51.186;17.130;2023-07-16T07:54:39;100218.40;;;31.74
70533;BMP180;58088;51.186;17.130;2023-07-16T07:57:06;100219.40;;;32.00
70533;BMP180;58088;51.186;17.130;2023-07-16T07:59:33;100216.20;;;32.10
70533;BMP180;58088;51.186;17.130;2023-07-16T08:01:59;100219.80;;;31.98
70533;BMP180;58088;51.186;17.130;2023-07-16T08:04:27;100218.40;;;31.90
70533;BMP180;58088;51.186;17.130;2023-07-16T08:06:54;100221.40;;;31.78
70533;BMP180;58088;51.186;17.130;2023-07-16T08:09:20;100219.60;;;31.84
70533;BMP180;58088;51.186;17.130;2023-07-16T08:11:47;100208.60;;;32.00
70533;BMP180;58088;51.186;17.130;2023-07-16T08:14:13;100202.00;;;32.20
70533;BMP180;58088;51.186;17.130;2023-07-16T08:16:39;100196.80;;;32.30
70533;BMP180;58088;51.186;17.130;2023-07-16T08:19:05;100194.00;;;32.38
70533;BMP180;58088;51.186;17.130;2023-07-16T08:21:32;100190.00;;;32.40
70533;BMP180;58088;51.186;17.130;2023-07-16T08:23:58;100186.80;;;32.30
70533;BMP180;58088;51.186;17.130;2023-07-16T08:26:25;100183.20;;;32.30
70533;BMP180;58088;51.186;17.130;2023-07-16T08:28:51;100186.40;;;32.30
70533;BMP180;58088;51.186;17.130;2023-07-16T08:31:18;100197.00;;;32.40
70533;BMP180;58088;51.186;17.130;2023-07-16T08:33:44;100198.00;;;32.58
70533;BMP180;58088;51.186;17.130;2023-07-16T08:36:10;100198.40;;;32.60
70533;BMP180;58088;51.186;17.130;2023-07-16T08:38:37;100193.80;;;32.50
70533;BMP180;58088;51.186;17.130;2023-07-16T08:41:03;100188.20;;;32.50
70533;BMP180;58088;51.186;17.130;2023-07-16T08:43:33;100191.00;;;32.60
70533;BMP180;58088;51.186;17.130;2023-07-16T08:46:01;100186.20;;;32.70
70533;BMP180;58088;51.186;17.130;2023-07-16T08:48:29;100186.20;;;32.80
70533;BMP180;58088;51.186;17.130;2023-07-16T08:51:02;100174.80;;;32.94
70533;BMP180;58088;51.186;17.130;2023-07-16T08:53:30;100177.00;;;33.10
70533;BMP180;58088;51.186;17.130;2023-07-16T08:55:57;100177.80;;;33.30
70533;BMP180;58088;51.186;17.130;2023-07-16T08:58:24;100172.20;;;33.58
70533;BMP180;58088;51.186;17.130;2023-07-16T09:00:51;100158.20;;;33.80
70533;BMP180;58088;51.186;17.130;2023-07-16T09:03:18;100154.20;;;33.80
70533;BMP180;58088;51.186;17.130;2023-07-16T09:05:44;100165.60;;;33.80
70533;BMP180;58088;51.186;17.130;2023-07-16T09:08:11;100165.00;;;33.70
70533;BMP180;58088;51.186;17.130;2023-07-16T09:10:43;100167.20;;;33.60
70533;BMP180;58088;51.186;17.130;2023-07-16T09:13:10;100165.40;;;33.52
70533;BMP180;58088;51.186;17.130;2023-07-16T09:15:36;100166.00;;;33.40
70533;BMP180;58088;51.186;17.130;2023-07-16T09:18:04;100164.20;;;33.20
70533;BMP180;58088;51.186;17.130;2023-07-16T09:20:30;100181.00;;;33.12
70533;BMP180;58088;51.186;17.130;2023-07-16T09:22:58;100185.80;;;33.00
70533;BMP180;58088;51.186;17.130;2023-07-16T09:25:31;100196.80;;;32.80
70533;BMP180;58088;51.186;17.130;2023-07-16T09:28:03;100187.80;;;32.60
70533;BMP180;58088;51.186;17.130;2023-07-16T09:30:34;100165.80;;;32.40
70533;BMP180;58088;51.186;17.130;2023-07-16T09:33:21;100168.60;;;32.20
70533;BMP180;58088;51.186;17.130;2023-07-16T09:35:50;100170.40;;;32.10
70533;BMP180;58088;51.186;17.130;2023-07-16T09:38:18;100170.40;;;32.00
70533;BMP180;58088;51.186;17.130;2023-07-16T09:40:45;100176.20;;;31.90
70533;BMP180;58088;51.186;17.130;2023-07-16T09:43:13;100184.80;;;31.90
70533;BMP180;58088;51.186;17.130;2023-07-16T09:45:40;100195.40;;;31.90
70533;BMP180;58088;51.186;17.130;2023-07-16T09:48:06;100189.20;;;31.90
70533;BMP180;58088;51.186;17.130;2023-07-16T09:50:34;100177.40;;;31.90
70533;BMP180;58088;51.186;17.130;2023-07-16T09:53:04;100179.80;;;32.00
70533;BMP180;58088;51.186;17.130;2023-07-16T09:55:35;100187.80;;;32.10
70533;BMP180;58088;51.186;17.130;2023-07-16T09:58:10;100201.60;;;32.10
70533;BMP180;58088;51.186;17.130;2023-07-16T10:00:39;100203.60;;;32.20
70533;BMP180;58088;51.186;17.130;2023-07-16T10:03:08;100211.00;;;32.30
70533;BMP180;58088;51.186;17.130;2023-07-16T10:05:37;100216.40;;;32.40
70533;BMP180;58088;51.186;17.130;2023-07-16T10:08:04;100222.80;;;32.60
70533;BMP180;58088;51.186;17.130;2023-07-16T10:10:52;100233.40;;;32.70
70533;BMP180;58088;51.186;17.130;2023-07-16T10:13:23;100243.60;;;32.60
70533;BMP180;58088;51.186;17.130;2023-07-16T10:15:57;100242.80;;;32.70
70533;BMP180;58088;51.186;17.130;2023-07-16T10:18:31;100237.80;;;32.70
70533;BMP180;58088;51.186;17.130;2023-07-16T10:21:06;100243.60;;;32.70
70533;BMP180;58088;51.186;17.130;2023-07-16T10:29:51;100248.60;;;31.56
70533;BMP180;58088;51.186;17.130;2023-07-16T10:32:39;100248.00;;;32.00
70533;BMP180;58088;51.186;17.130;2023-07-16T10:35:26;100254.00;;;32.00
70533;BMP180;58088;51.186;17.130;2023-07-16T10:38:12;100259.00;;;31.80
70533;BMP180;58088;51.186;17.130;2023-07-16T10:40:59;100266.80;;;31.70
70533;BMP180;58088;51.186;17.130;2023-07-16T10:43:46;100270.00;;;31.50
70533;BMP180;58088;51.186;17.130;2023-07-16T10:46:33;100272.80;;;31.26
70533;BMP180;58088;51.186;17.130;2023-07-16T10:49:29;100279.40;;;31.00
70533;BMP180;58088;51.186;17.130;2023-07-16T10:52:16;100278.00;;;30.70
70533;BMP180;58088;51.186;17.130;2023-07-16T10:55:03;100281.40;;;30.46
70533;BMP180;58088;51.186;17.130;2023-07-16T10:57:51;100285.00;;;30.20
70533;BMP180;58088;51.186;17.130;2023-07-16T11:00:39;100288.00;;;30.04
70533;BMP180;58088;51.186;17.130;2023-07-16T11:03:28;100283.60;;;29.98
70533;BMP180;58088;51.186;17.130;2023-07-16T11:06:14;100285.80;;;29.80
70533;BMP180;58088;51.186;17.130;2023-07-16T11:09:10;100291.80;;;29.62
70533;BMP180;58088;51.186;17.130;2023-07-16T11:12:08;100285.20;;;29.50
70533;BMP180;58088;51.186;17.130;2023-07-16T11:14:56;100280.20;;;29.40
70533;BMP180;58088;51.186;17.130;2023-07-16T11:17:48;100284.20;;;29.30
70533;BMP180;58088;51.186;17.130;2023-07-16T11:20:37;100286.20;;;29.20
70533;BMP180;58088;51.186;17.130;2023-07-16T11:23:24;100284.60;;;29.12
70533;BMP180;58088;51.186;17.130;2023-07-16T11:26:10;100283.20;;;29.10
70533;BMP180;58088;51.186;17.130;2023-07-16T11:28:57;100287.40;;;29.00
70533;BMP180;58088;51.186;17.130;2023-07-16T11:31:49;100281.00;;;29.00
70533;BMP180;58088;51.186;17.130;2023-07-16T11:34:35;100279.80;;;28.92
70533;BMP180;58088;51.186;17.130;2023-07-16T11:37:25;100285.00;;;28.90
70533;BMP180;58088;51.186;17.130;2023-07-16T11:40:20;100290.00;;;28.90
70533;BMP180;58088;51.186;17.130;2023-07-16T11:43:11;100289.40;;;28.90
70533;BMP180;58088;51.186;17.130;2023-07-16T11:45:58;100291.60;;;28.90
70533;BMP180;58088;51.186;17.130;2023-07-16T11:48:44;100293.00;;;28.90
70533;BMP180;58088;51.186;17.130;2023-07-16T11:51:31;100293.60;;;28.90
70533;BMP180;58088;51.186;17.130;2023-07-16T11:54:18;100293.80;;;28.98
70533;BMP180;58088;51.186;17.130;2023-07-16T11:57:05;100297.60;;;29.00
70533;BMP180;58088;51.186;17.130;2023-07-16T11:59:52;100297.20;;;29.00
70533;BMP180;58088;51.186;17.130;2023-07-16T12:02:42;100294.80;;;28.90
70533;BMP180;58088;51.186;17.130;2023-07-16T12:05:29;100288.00;;;28.90
70533;BMP180;58088;51.186;17.130;2023-07-16T12:08:15;100294.20;;;28.80
70533;BMP180;58088;51.186;17.130;2023-07-16T12:11:02;100297.20;;;28.90
70533;BMP180;58088;51.186;17.130;2023-07-16T12:13:49;100293.20;;;28.90
70533;BMP180;58088;51.186;17.130;2023-07-16T12:16:35;100292.00;;;28.90
70533;BMP180;58088;51.186;17.130;2023-07-16T12:19:24;100290.20;;;28.90
70533;BMP180;58088;51.186;17.130;2023-07-16T12:22:11;100291.80;;;29.00
70533;BMP180;58088;51.186;17.130;2023-07-16T12:24:58;100285.40;;;29.10
70533;BMP180;58088;51.186;17.130;2023-07-16T12:27:45;100285.60;;;29.20
70533;BMP180;58088;51.186;17.130;2023-07-16T12:30:32;100285.20;;;29.30
70533;BMP180;58088;51.186;17.130;2023-07-16T12:33:18;100280.60;;;29.38
70533;BMP180;58088;51.186;17.130;2023-07-16T12:36:05;100279.20;;;29.40
70533;BMP180;58088;51.186;17.130;2023-07-16T12:38:52;100285.40;;;29.50
70533;BMP180;58088;51.186;17.130;2023-07-16T12:41:38;100284.40;;;29.60
70533;BMP180;58088;51.186;17.130;2023-07-16T12:44:25;100284.20;;;29.70
70533;BMP180;58088;51.186;17.130;2023-07-16T12:47:12;100282.80;;;29.78
70533;BMP180;58088;51.186;17.130;2023-07-16T12:49:59;100279.40;;;29.70
70533;BMP180;58088;51.186;17.130;2023-07-16T12:52:45;100277.80;;;29.80
70533;BMP180;58088;51.186;17.130;2023-07-16T12:55:32;100270.20;;;29.90
70533;BMP180;58088;51.186;17.130;2023-07-16T12:58:20;100271.20;;;30.00
70533;BMP180;58088;51.186;17.130;2023-07-16T13:01:07;100275.60;;;30.00
70533;BMP180;58088;51.186;17.130;2023-07-16T13:03:54;100276.80;;;30.00
70533;BMP180;58088;51.186;17.130;2023-07-16T13:06:41;100273.00;;;30.04
70533;BMP180;58088;51.186;17.130;2023-07-16T13:09:29;100279.20;;;30.10
70533;BMP180;58088;51.186;17.130;2023-07-16T13:12:16;100279.40;;;30.10
70533;BMP180;58088;51.186;17.130;2023-07-16T13:15:04;100280.00;;;30.08
70533;BMP180;58088;51.186;17.130;2023-07-16T13:17:51;100289.20;;;30.02
70533;BMP180;58088;51.186;17.130;2023-07-16T13:20:39;100289.00;;;30.00
70533;BMP180;58088;51.186;17.130;2023-07-16T13:23:26;100288.40;;;30.00
70533;BMP180;58088;51.186;17.130;2023-07-16T13:26:14;100297.00;;;29.88
70533;BMP180;58088;51.186;17.130;2023-07-16T13:29:01;100298.80;;;29.70
70533;BMP180;58088;51.186;17.130;2023-07-16T13:31:48;100298.00;;;29.60
70533;BMP180;58088;51.186;17.130;2023-07-16T13:34:36;100303.00;;;29.60
70533;BMP180;58088;51.186;17.130;2023-07-16T13:37:23;100301.80;;;29.50
70533;BMP180;58088;51.186;17.130;2023-07-16T13:40:12;100304.40;;;29.50
70533;BMP180;58088;51.186;17.130;2023-07-16T13:42:59;100303.00;;;29.60
70533;BMP180;58088;51.186;17.130;2023-07-16T13:45:47;100299.20;;;29.60
70533;BMP180;58088;51.186;17.130;2023-07-16T13:48:35;100301.00;;;29.70
70533;BMP180;58088;51.186;17.130;2023-07-16T13:51:22;100299.40;;;29.72
70533;BMP180;58088;51.186;17.130;2023-07-16T13:54:12;100304.00;;;29.80
70533;BMP180;58088;51.186;17.130;2023-07-16T13:56:59;100305.20;;;29.90
70533;BMP180;58088;51.186;17.130;2023-07-16T13:59:46;100309.60;;;29.90
70533;BMP180;58088;51.186;17.130;2023-07-16T14:02:34;100311.60;;;29.90
70533;BMP180;58088;51.186;17.130;2023-07-16T14:05:21;100310.00;;;29.90
70533;BMP180;58088;51.186;17.130;2023-07-16T14:08:09;100305.40;;;29.92
70533;BMP180;58088;51.186;17.130;2023-07-16T14:10:56;100306.60;;;30.00
70533;BMP180;58088;51.186;17.130;2023-07-16T14:13:44;100306.00;;;30.00
70533;BMP180;58088;51.186;17.130;2023-07-16T14:16:31;100307.60;;;30.00
70533;BMP180;58088;51.186;17.130;2023-07-16T14:19:20;100308.80;;;30.06
70533;BMP180;58088;51.186;17.130;2023-07-16T14:22:07;100308.20;;;30.00
70533;BMP180;58088;51.186;17.130;2023-07-16T14:24:59;100307.00;;;30.00
70533;BMP180;58088;51.186;17.130;2023-07-16T14:27:46;100307.60;;;29.98
70533;BMP180;58088;51.186;17.130;2023-07-16T14:30:34;100301.00;;;29.92
70533;BMP180;58088;51.186;17.130;2023-07-16T14:33:21;100301.00;;;29.90